sensor_id;sensor_type;location;lat;lon;timestamp;P1;durP1;ratioP1;P2;durP2;ratioP2
16735;SDS011;17990;49.548;9.730;2023-03-13T00:01:49;21.53;;;7.10;;
16735;SDS011;17990;49.548;9.730;2023-03-13T00:04:16;29.00;;;9.37;;
16735;SDS011;17990;49.548;9.730;2023-03-13T00:06:43;41.97;;;12.07;;
16735;SDS011;17990;49.548;9.730;2023-03-13T00:09:11;44.87;;;13.93;;
16735;SDS011;17990;49.548;9.730;2023-03-13T00:11:41;41.93;;;12.13;;
16735;SDS011;17990;49.548;9.730;2023-03-13T00:14:08;23.83;;;9.40;;
16735;SDS011;17990;49.548;9.730;2023-03-13T00:16:36;27.80;;;8.27;;
16735;SDS011;17990;49.548;9.730;2023-03-13T00:19:04;25.33;;;7.90;;
16735;SDS011;17990;49.548;9.730;2023-03-13T00:21:32;24.60;;;7.57;;
16735;SDS011;17990;49.548;9.730;2023-03-13T00:24:01;21.13;;;5.80;;
16735;SDS011;17990;49.548;9.730;2023-03-13T00:26:29;20.67;;;6.30;;
16735;SDS011;17990;49.548;9.730;2023-03-13T00:28:58;20.90;;;5.60;;
16735;SDS011;17990;49.548;9.730;2023-03-13T00:38:10;12.10;;;4.10;;
16735;SDS011;17990;49.548;9.730;2023-03-13T00:47:24;16.77;;;3.67;;
16735;SDS011;17990;49.548;9.730;2023-03-13T00:49:52;14.23;;;3.80;;
16735;SDS011;17990;49.548;9.730;2023-03-13T00:52:19;18.00;;;3.47;;
16735;SDS011;17990;49.548;9.730;2023-03-13T00:54:47;11.77;;;3.37;;
16735;SDS011;17990;49.548;9.730;2023-03-13T00:57:15;9.97;;;2.90;;
16735;SDS011;17990;49.548;9.730;2023-03-13T00:59:42;12.20;;;3.57;;
16735;SDS011;17990;49.548;9.730;2023-03-13T01:02:09;13.20;;;3.40;;
16735;SDS011;17990;49.548;9.730;2023-03-13T01:04:38;8.20;;;2.83;;
16735;SDS011;17990;49.548;9.730;2023-03-13T01:07:05;11.87;;;3.57;;
16735;SDS011;17990;49.548;9.730;2023-03-13T01:09:32;9.17;;;3.13;;
16735;SDS011;17990;49.548;9.730;2023-03-13T01:11:59;9.37;;;3.10;;
16735;SDS011;17990;49.548;9.730;2023-03-13T01:14:26;11.67;;;2.87;;
16735;SDS011;17990;49.548;9.730;2023-03-13T01:16:54;9.63;;;2.70;;
16735;SDS011;17990;49.548;9.730;2023-03-13T01:19:21;10.20;;;2.83;;
16735;SDS011;17990;49.548;9.730;2023-03-13T01:21:49;9.80;;;2.57;;
16735;SDS011;17990;49.548;9.730;2023-03-13T01:24:17;11.10;;;2.53;;
16735;SDS011;17990;49.548;9.730;2023-03-13T01:26:44;11.13;;;2.40;;
16735;SDS011;17990;49.548;9.730;2023-03-13T01:29:11;10.20;;;2.90;;
16735;SDS011;17990;49.548;9.730;2023-03-13T01:31:38;8.73;;;2.17;;
16735;SDS011;17990;49.548;9.730;2023-03-13T01:34:06;13.53;;;2.70;;
16735;SDS011;17990;49.548;9.730;2023-03-13T01:36:34;10.10;;;2.20;;
16735;SDS011;17990;49.548;9.730;2023-03-13T01:39:03;9.17;;;2.13;;
16735;SDS011;17990;49.548;9.730;2023-03-13T01:41:31;8.43;;;2.17;;
16735;SDS011;17990;49.548;9.730;2023-03-13T01:43:58;12.77;;;2.00;;
16735;SDS011;17990;49.548;9.730;2023-03-13T01:46:26;8.93;;;2.40;;
16735;SDS011;17990;49.548;9.730;2023-03-13T01:48:55;11.30;;;2.30;;
16735;SDS011;17990;49.548;9.730;2023-03-13T01:51:27;10.57;;;2.37;;
16735;SDS011;17990;49.548;9.730;2023-03-13T01:53:57;9.60;;;2.27;;
16735;SDS011;17990;49.548;9.730;2023-03-13T01:56:31;7.03;;;2.33;;
16735;SDS011;17990;49.548;9.730;2023-03-13T01:59:03;8.47;;;2.23;;
16735;SDS011;17990;49.548;9.730;2023-03-13T02:01:33;8.97;;;2.23;;
16735;SDS011;17990;49.548;9.730;2023-03-13T02:04:00;7.47;;;2.10;;
16735;SDS011;17990;49.548;9.730;2023-03-13T02:06:28;8.80;;;2.13;;
16735;SDS011;17990;49.548;9.730;2023-03-13T02:08:58;7.87;;;2.07;;
16735;SDS011;17990;49.548;9.730;2023-03-13T02:11:34;9.73;;;2.20;;
16735;SDS011;17990;49.548;9.730;2023-03-13T02:14:10;8.93;;;2.03;;
16735;SDS011;17990;49.548;9.730;2023-03-13T02:16:37;10.50;;;2.20;;
16735;SDS011;17990;49.548;9.730;2023-03-13T02:19:07;11.67;;;2.43;;
16735;SDS011;17990;49.548;9.730;2023-03-13T02:21:42;14.57;;;2.47;;
16735;SDS011;17990;49.548;9.730;2023-03-13T02:24:16;10.13;;;2.00;;
16735;SDS011;17990;49.548;9.730;2023-03-13T02:26:52;10.33;;;1.70;;
16735;SDS011;17990;49.548;9.730;2023-03-13T02:29:19;11.07;;;2.27;;
16735;SDS011;17990;49.548;9.730;2023-03-13T02:31:47;9.93;;;2.23;;
16735;SDS011;17990;49.548;9.730;2023-03-13T02:34:14;14.73;;;2.53;;
16735;SDS011;17990;49.548;9.730;2023-03-13T02:36:44;14.80;;;2.50;;
16735;SDS011;17990;49.548;9.730;2023-03-13T02:39:12;7.17;;;2.03;;
16735;SDS011;17990;49.548;9.730;2023-03-13T02:41:40;9.13;;;1.60;;
16735;SDS011;17990;49.548;9.730;2023-03-13T02:44:09;9.03;;;1.97;;
16735;SDS011;17990;49.548;9.730;2023-03-13T02:46:43;8.10;;;1.83;;
16735;SDS011;17990;49.548;9.730;2023-03-13T02:49:18;9.37;;;2.00;;
16735;SDS011;17990;49.548;9.730;2023-03-13T02:51:47;9.97;;;2.30;;
16735;SDS011;17990;49.548;9.730;2023-03-13T02:54:15;8.90;;;2.47;;
16735;SDS011;17990;49.548;9.730;2023-03-13T02:56:45;11.23;;;2.33;;
16735;SDS011;17990;49.548;9.730;2023-03-13T02:59:15;14.33;;;2.50;;
16735;SDS011;17990;49.548;9.730;2023-03-13T03:01:43;9.90;;;2.20;;
16735;SDS011;17990;49.548;9.730;2023-03-13T03:04:10;8.17;;;2.10;;
16735;SDS011;17990;49.548;9.730;2023-03-13T03:06:37;8.77;;;2.40;;
16735;SDS011;17990;49.548;9.730;2023-03-13T03:09:05;7.90;;;2.13;;
16735;SDS011;17990;49.548;9.730;2023-03-13T03:11:32;8.83;;;1.67;;
16735;SDS011;17990;49.548;9.730;2023-03-13T03:14:00;6.40;;;1.97;;
16735;SDS011;17990;49.548;9.730;2023-03-13T03:16:28;8.60;;;1.90;;
16735;SDS011;17990;49.548;9.730;2023-03-13T03:18:56;7.97;;;1.97;;
16735;SDS011;17990;49.548;9.730;2023-03-13T03:21:23;8.20;;;2.20;;
16735;SDS011;17990;49.548;9.730;2023-03-13T03:23:50;8.47;;;1.80;;
16735;SDS011;17990;49.548;9.730;2023-03-13T03:26:17;8.17;;;1.80;;
16735;SDS011;17990;49.548;9.730;2023-03-13T03:28:45;8.80;;;1.93;;
16735;SDS011;17990;49.548;9.730;2023-03-13T03:31:12;8.33;;;1.60;;
16735;SDS011;17990;49.548;9.730;2023-03-13T03:33:42;7.43;;;2.13;;
16735;SDS011;17990;49.548;9.730;2023-03-13T03:36:10;8.53;;;1.93;;
16735;SDS011;17990;49.548;9.730;2023-03-13T03:38:39;10.83;;;2.20;;
16735;SDS011;17990;49.548;9.730;2023-03-13T03:41:07;6.00;;;1.70;;
16735;SDS011;17990;49.548;9.730;2023-03-13T03:43:35;7.87;;;1.80;;
16735;SDS011;17990;49.548;9.730;2023-03-13T03:46:02;8.03;;;2.30;;
16735;SDS011;17990;49.548;9.730;2023-03-13T03:48:29;9.10;;;2.40;;
16735;SDS011;17990;49.548;9.730;2023-03-13T03:50:58;7.90;;;1.80;;
16735;SDS011;17990;49.548;9.730;2023-03-13T03:53:25;9.17;;;1.93;;
16735;SDS011;17990;49.548;9.730;2023-03-13T03:55:53;10.90;;;2.37;;
16735;SDS011;17990;49.548;9.730;2023-03-13T03:58:20;9.87;;;2.37;;
16735;SDS011;17990;49.548;9.730;2023-03-13T04:00:47;8.63;;;2.03;;
16735;SDS011;17990;49.548;9.730;2023-03-13T04:03:14;8.13;;;2.20;;
16735;SDS011;17990;49.548;9.730;2023-03-13T04:05:42;11.00;;;2.30;;
16735;SDS011;17990;49.548;9.730;2023-03-13T04:08:11;8.90;;;1.77;;
16735;SDS011;17990;49.548;9.730;2023-03-13T04:10:38;10.00;;;2.37;;
16735;SDS011;17990;49.548;9.730;2023-03-13T04:13:05;10.23;;;2.10;;
16735;SDS011;17990;49.548;9.730;2023-03-13T04:15:32;9.13;;;2.13;;
16735;SDS011;17990;49.548;9.730;2023-03-13T04:18:00;8.27;;;1.67;;
16735;SDS011;17990;49.548;9.730;2023-03-13T04:20:27;9.90;;;2.10;;
16735;SDS011;17990;49.548;9.730;2023-03-13T04:22:54;5.73;;;1.80;;
16735;SDS011;17990;49.548;9.730;2023-03-13T04:25:22;10.90;;;2.67;;
16735;SDS011;17990;49.548;9.730;2023-03-13T04:27:50;9.20;;;2.20;;
16735;SDS011;17990;49.548;9.730;2023-03-13T04:30:17;13.73;;;1.90;;
16735;SDS011;17990;49.548;9.730;2023-03-13T04:32:44;9.10;;;2.60;;
16735;SDS011;17990;49.548;9.730;2023-03-13T04:35:11;7.63;;;1.87;;
16735;SDS011;17990;49.548;9.730;2023-03-13T04:37:39;6.53;;;1.33;;
16735;SDS011;17990;49.548;9.730;2023-03-13T04:40:06;5.60;;;1.50;;
16735;SDS011;17990;49.548;9.730;2023-03-13T04:42:36;9.57;;;1.67;;
16735;SDS011;17990;49.548;9.730;2023-03-13T04:45:03;6.50;;;1.47;;
16735;SDS011;17990;49.548;9.730;2023-03-13T04:47:31;8.47;;;2.10;;
16735;SDS011;17990;49.548;9.730;2023-03-13T04:49:58;6.03;;;1.40;;
16735;SDS011;17990;49.548;9.730;2023-03-13T04:52:25;7.10;;;1.60;;
16735;SDS011;17990;49.548;9.730;2023-03-13T04:54:52;5.27;;;1.70;;
16735;SDS011;17990;49.548;9.730;2023-03-13T04:57:20;6.37;;;1.53;;
16735;SDS011;17990;49.548;9.730;2023-03-13T04:59:48;6.43;;;1.40;;
16735;SDS011;17990;49.548;9.730;2023-03-13T05:02:15;6.13;;;1.50;;
16735;SDS011;17990;49.548;9.730;2023-03-13T05:04:42;7.03;;;1.57;;
16735;SDS011;17990;49.548;9.730;2023-03-13T05:07:10;8.00;;;2.20;;
16735;SDS011;17990;49.548;9.730;2023-03-13T05:09:37;7.47;;;1.90;;
16735;SDS011;17990;49.548;9.730;2023-03-13T05:12:04;9.23;;;2.17;;
16735;SDS011;17990;49.548;9.730;2023-03-13T05:14:32;5.77;;;2.00;;
16735;SDS011;17990;49.548;9.730;2023-03-13T05:17:00;8.27;;;1.90;;
16735;SDS011;17990;49.548;9.730;2023-03-13T05:19:27;9.67;;;1.87;;
16735;SDS011;17990;49.548;9.730;2023-03-13T05:21:55;9.10;;;1.87;;
16735;SDS011;17990;49.548;9.730;2023-03-13T05:24:22;6.07;;;1.40;;
16735;SDS011;17990;49.548;9.730;2023-03-13T05:26:49;9.03;;;1.63;;
16735;SDS011;17990;49.548;9.730;2023-03-13T05:29:16;5.73;;;1.33;;
16735;SDS011;17990;49.548;9.730;2023-03-13T05:31:43;8.57;;;2.10;;
16735;SDS011;17990;49.548;9.730;2023-03-13T05:34:12;5.40;;;1.40;;
16735;SDS011;17990;49.548;9.730;2023-03-13T05:36:39;6.83;;;1.50;;
16735;SDS011;17990;49.548;9.730;2023-03-13T05:39:06;5.10;;;1.77;;
16735;SDS011;17990;49.548;9.730;2023-03-13T05:41:34;4.63;;;1.60;;
16735;SDS011;17990;49.548;9.730;2023-03-13T05:44:01;4.67;;;1.53;;
16735;SDS011;17990;49.548;9.730;2023-03-13T05:46:28;9.30;;;2.07;;
16735;SDS011;17990;49.548;9.730;2023-03-13T05:48:56;5.20;;;1.50;;
16735;SDS011;17990;49.548;9.730;2023-03-13T05:51:24;6.50;;;1.67;;
16735;SDS011;17990;49.548;9.730;2023-03-13T05:53:52;6.73;;;1.63;;
16735;SDS011;17990;49.548;9.730;2023-03-13T05:56:19;7.97;;;1.80;;
16735;SDS011;17990;49.548;9.730;2023-03-13T05:58:46;6.30;;;1.63;;
16735;SDS011;17990;49.548;9.730;2023-03-13T06:01:13;7.60;;;2.03;;
16735;SDS011;17990;49.548;9.730;2023-03-13T06:03:40;5.13;;;1.33;;
16735;SDS011;17990;49.548;9.730;2023-03-13T06:06:08;7.70;;;1.70;;
16735;SDS011;17990;49.548;9.730;2023-03-13T06:08:36;6.23;;;2.20;;
16735;SDS011;17990;49.548;9.730;2023-03-13T06:11:03;6.63;;;1.73;;
16735;SDS011;17990;49.548;9.730;2023-03-13T06:13:31;6.63;;;2.10;;
16735;SDS011;17990;49.548;9.730;2023-03-13T06:15:58;7.27;;;2.70;;
16735;SDS011;17990;49.548;9.730;2023-03-13T06:18:25;10.43;;;2.53;;
16735;SDS011;17990;49.548;9.730;2023-03-13T06:20:55;7.87;;;2.03;;
16735;SDS011;17990;49.548;9.730;2023-03-13T06:23:23;9.67;;;2.33;;
16735;SDS011;17990;49.548;9.730;2023-03-13T06:25:52;7.20;;;1.50;;
16735;SDS011;17990;49.548;9.730;2023-03-13T06:28:19;7.30;;;1.80;;
16735;SDS011;17990;49.548;9.730;2023-03-13T06:30:47;5.97;;;2.10;;
16735;SDS011;17990;49.548;9.730;2023-03-13T06:33:14;6.67;;;2.50;;
16735;SDS011;17990;49.548;9.730;2023-03-13T06:35:41;7.30;;;2.17;;
16735;SDS011;17990;49.548;9.730;2023-03-13T06:38:09;7.67;;;1.80;;
16735;SDS011;17990;49.548;9.730;2023-03-13T06:40:36;5.77;;;1.50;;
16735;SDS011;17990;49.548;9.730;2023-03-13T06:43:05;5.40;;;1.70;;
16735;SDS011;17990;49.548;9.730;2023-03-13T06:45:33;5.03;;;1.50;;
16735;SDS011;17990;49.548;9.730;2023-03-13T06:48:01;6.43;;;1.60;;
16735;SDS011;17990;49.548;9.730;2023-03-13T06:50:28;4.63;;;1.87;;
16735;SDS011;17990;49.548;9.730;2023-03-13T06:52:56;6.63;;;1.87;;
16735;SDS011;17990;49.548;9.730;2023-03-13T06:55:23;9.63;;;3.67;;
16735;SDS011;17990;49.548;9.730;2023-03-13T06:57:50;13.23;;;5.43;;
16735;SDS011;17990;49.548;9.730;2023-03-13T07:00:19;9.90;;;3.50;;
16735;SDS011;17990;49.548;9.730;2023-03-13T07:02:47;16.27;;;5.23;;
16735;SDS011;17990;49.548;9.730;2023-03-13T07:05:15;8.13;;;2.53;;
16735;SDS011;17990;49.548;9.730;2023-03-13T07:07:42;7.00;;;2.27;;
16735;SDS011;17990;49.548;9.730;2023-03-13T07:10:10;3.90;;;1.53;;
16735;SDS011;17990;49.548;9.730;2023-03-13T07:12:38;4.03;;;1.40;;
16735;SDS011;17990;49.548;9.730;2023-03-13T07:15:05;2.60;;;1.03;;
16735;SDS011;17990;49.548;9.730;2023-03-13T07:17:35;4.20;;;1.20;;
16735;SDS011;17990;49.548;9.730;2023-03-13T07:20:02;3.73;;;1.43;;
16735;SDS011;17990;49.548;9.730;2023-03-13T07:22:33;2.43;;;1.20;;
16735;SDS011;17990;49.548;9.730;2023-03-13T07:25:01;4.67;;;1.30;;
16735;SDS011;17990;49.548;9.730;2023-03-13T07:27:28;3.73;;;1.20;;
16735;SDS011;17990;49.548;9.730;2023-03-13T07:29:56;4.33;;;1.27;;
16735;SDS011;17990;49.548;9.730;2023-03-13T07:32:23;3.33;;;1.00;;
16735;SDS011;17990;49.548;9.730;2023-03-13T07:34:51;3.47;;;1.00;;
16735;SDS011;17990;49.548;9.730;2023-03-13T07:37:19;1.43;;;0.70;;
16735;SDS011;17990;49.548;9.730;2023-03-13T07:39:46;2.33;;;0.80;;
16735;SDS011;17990;49.548;9.730;2023-03-13T07:42:13;3.70;;;0.83;;
16735;SDS011;17990;49.548;9.730;2023-03-13T07:44:40;2.30;;;0.97;;
16735;SDS011;17990;49.548;9.730;2023-03-13T07:47:07;1.87;;;1.20;;
16735;SDS011;17990;49.548;9.730;2023-03-13T07:49:35;3.30;;;1.33;;
16735;SDS011;17990;49.548;9.730;2023-03-13T07:52:07;4.07;;;1.30;;
16735;SDS011;17990;49.548;9.730;2023-03-13T07:54:34;4.00;;;1.17;;
16735;SDS011;17990;49.548;9.730;2023-03-13T07:57:02;2.37;;;1.30;;
16735;SDS011;17990;49.548;9.730;2023-03-13T07:59:29;5.07;;;2.30;;
16735;SDS011;17990;49.548;9.730;2023-03-13T08:01:56;2.90;;;1.50;;
16735;SDS011;17990;49.548;9.730;2023-03-13T08:04:23;1.80;;;0.97;;
16735;SDS011;17990;49.548;9.730;2023-03-13T08:06:51;2.63;;;1.30;;
16735;SDS011;17990;49.548;9.730;2023-03-13T08:09:20;1.70;;;0.90;;
16735;SDS011;17990;49.548;9.730;2023-03-13T08:11:47;3.00;;;1.00;;
16735;SDS011;17990;49.548;9.730;2023-03-13T08:14:14;1.87;;;0.77;;
16735;SDS011;17990;49.548;9.730;2023-03-13T08:16:41;5.87;;;3.83;;
16735;SDS011;17990;49.548;9.730;2023-03-13T08:19:09;3.53;;;1.40;;
16735;SDS011;17990;49.548;9.730;2023-03-13T08:21:36;3.93;;;1.33;;
16735;SDS011;17990;49.548;9.730;2023-03-13T08:24:04;2.37;;;1.47;;
16735;SDS011;17990;49.548;9.730;2023-03-13T08:26:34;1.40;;;0.70;;
16735;SDS011;17990;49.548;9.730;2023-03-13T08:29:03;1.30;;;0.80;;
16735;SDS011;17990;49.548;9.730;2023-03-13T08:31:32;4.20;;;1.50;;
16735;SDS011;17990;49.548;9.730;2023-03-13T08:34:00;2.40;;;0.70;;
16735;SDS011;17990;49.548;9.730;2023-03-13T08:36:29;2.23;;;0.90;;
16735;SDS011;17990;49.548;9.730;2023-03-13T08:38:58;3.07;;;2.50;;
16735;SDS011;17990;49.548;9.730;2023-03-13T08:41:26;1.33;;;0.50;;
16735;SDS011;17990;49.548;9.730;2023-03-13T08:43:56;1.20;;;0.50;;
16735;SDS011;17990;49.548;9.730;2023-03-13T08:46:24;1.47;;;0.67;;
16735;SDS011;17990;49.548;9.730;2023-03-13T08:48:52;1.03;;;0.67;;
16735;SDS011;17990;49.548;9.730;2023-03-13T08:51:20;1.90;;;1.00;;
16735;SDS011;17990;49.548;9.730;2023-03-13T08:53:48;1.70;;;0.70;;
16735;SDS011;17990;49.548;9.730;2023-03-13T08:56:16;2.40;;;0.93;;
16735;SDS011;17990;49.548;9.730;2023-03-13T08:58:47;2.77;;;0.80;;
16735;SDS011;17990;49.548;9.730;2023-03-13T09:01:16;1.43;;;0.60;;
16735;SDS011;17990;49.548;9.730;2023-03-13T09:03:44;1.27;;;0.70;;
16735;SDS011;17990;49.548;9.730;2023-03-13T09:06:12;2.13;;;0.50;;
16735;SDS011;17990;49.548;9.730;2023-03-13T09:08:39;1.00;;;0.50;;
16735;SDS011;17990;49.548;9.730;2023-03-13T09:11:08;1.10;;;0.70;;
16735;SDS011;17990;49.548;9.730;2023-03-13T09:13:36;1.17;;;0.70;;
16735;SDS011;17990;49.548;9.730;2023-03-13T09:16:05;2.13;;;0.70;;
16735;SDS011;17990;49.548;9.730;2023-03-13T09:18:35;1.50;;;0.60;;
16735;SDS011;17990;49.548;9.730;2023-03-13T09:21:06;1.50;;;0.80;;
16735;SDS011;17990;49.548;9.730;2023-03-13T09:23:35;1.87;;;0.90;;
16735;SDS011;17990;49.548;9.730;2023-03-13T09:26:02;1.20;;;0.40;;
16735;SDS011;17990;49.548;9.730;2023-03-13T09:28:30;3.37;;;1.73;;
16735;SDS011;17990;49.548;9.730;2023-03-13T09:31:04;2.03;;;1.00;;
16735;SDS011;17990;49.548;9.730;2023-03-13T09:33:33;1.70;;;0.50;;
16735;SDS011;17990;49.548;9.730;2023-03-13T09:36:01;1.77;;;0.60;;
16735;SDS011;17990;49.548;9.730;2023-03-13T09:38:29;0.93;;;0.60;;
16735;SDS011;17990;49.548;9.730;2023-03-13T09:41:00;0.80;;;0.40;;
16735;SDS011;17990;49.548;9.730;2023-03-13T09:43:33;2.63;;;0.53;;
16735;SDS011;17990;49.548;9.730;2023-03-13T09:46:08;2.67;;;0.70;;
16735;SDS011;17990;49.548;9.730;2023-03-13T09:48:40;1.80;;;0.80;;
16735;SDS011;17990;49.548;9.730;2023-03-13T09:51:10;1.43;;;0.60;;
16735;SDS011;17990;49.548;9.730;2023-03-13T09:53:41;2.83;;;0.63;;
16735;SDS011;17990;49.548;9.730;2023-03-13T09:56:12;3.07;;;1.00;;
16735;SDS011;17990;49.548;9.730;2023-03-13T09:58:42;4.33;;;0.80;;
16735;SDS011;17990;49.548;9.730;2023-03-13T10:01:13;2.57;;;1.50;;
16735;SDS011;17990;49.548;9.730;2023-03-13T10:03:46;1.13;;;0.80;;
16735;SDS011;17990;49.548;9.730;2023-03-13T10:06:20;1.27;;;0.70;;
16735;SDS011;17990;49.548;9.730;2023-03-13T10:08:48;4.20;;;0.77;;
16735;SDS011;17990;49.548;9.730;2023-03-13T10:11:19;0.80;;;0.60;;
16735;SDS011;17990;49.548;9.730;2023-03-13T10:13:51;5.60;;;1.00;;
16735;SDS011;17990;49.548;9.730;2023-03-13T10:16:22;2.03;;;1.00;;
16735;SDS011;17990;49.548;9.730;2023-03-13T10:18:53;4.93;;;0.97;;
16735;SDS011;17990;49.548;9.730;2023-03-13T10:21:22;2.40;;;0.60;;
16735;SDS011;17990;49.548;9.730;2023-03-13T10:23:52;3.10;;;1.10;;
16735;SDS011;17990;49.548;9.730;2023-03-13T10:26:23;3.73;;;0.90;;
16735;SDS011;17990;49.548;9.730;2023-03-13T10:28:54;2.13;;;1.00;;
16735;SDS011;17990;49.548;9.730;2023-03-13T10:31:23;5.93;;;1.30;;
16735;SDS011;17990;49.548;9.730;2023-03-13T10:33:53;1.93;;;0.73;;
16735;SDS011;17990;49.548;9.730;2023-03-13T10:36:30;5.53;;;0.90;;
16735;SDS011;17990;49.548;9.730;2023-03-13T10:39:06;1.80;;;0.57;;
16735;SDS011;17990;49.548;9.730;2023-03-13T10:41:37;1.73;;;0.90;;
16735;SDS011;17990;49.548;9.730;2023-03-13T10:44:05;1.80;;;0.70;;
16735;SDS011;17990;49.548;9.730;2023-03-13T10:46:41;4.07;;;1.20;;
16735;SDS011;17990;49.548;9.730;2023-03-13T10:49:13;2.43;;;0.80;;
16735;SDS011;17990;49.548;9.730;2023-03-13T10:51:45;3.67;;;0.70;;
16735;SDS011;17990;49.548;9.730;2023-03-13T10:54:15;2.87;;;0.80;;
16735;SDS011;17990;49.548;9.730;2023-03-13T10:56:47;3.10;;;0.70;;
16735;SDS011;17990;49.548;9.730;2023-03-13T10:59:22;4.23;;;1.00;;
16735;SDS011;17990;49.548;9.730;2023-03-13T11:01:51;2.70;;;1.10;;
16735;SDS011;17990;49.548;9.730;2023-03-13T11:04:27;2.50;;;0.90;;
16735;SDS011;17990;49.548;9.730;2023-03-13T11:07:00;2.90;;;0.90;;
16735;SDS011;17990;49.548;9.730;2023-03-13T11:09:29;1.70;;;0.73;;
16735;SDS011;17990;49.548;9.730;2023-03-13T11:12:00;3.60;;;0.90;;
16735;SDS011;17990;49.548;9.730;2023-03-13T11:14:29;3.17;;;0.90;;
16735;SDS011;17990;49.548;9.730;2023-03-13T11:16:58;2.77;;;0.73;;
16735;SDS011;17990;49.548;9.730;2023-03-13T11:19:31;4.40;;;0.90;;
16735;SDS011;17990;49.548;9.730;2023-03-13T11:22:10;2.30;;;0.97;;
16735;SDS011;17990;49.548;9.730;2023-03-13T11:24:45;9.03;;;1.33;;
16735;SDS011;17990;49.548;9.730;2023-03-13T11:27:19;3.83;;;0.80;;
16735;SDS011;17990;49.548;9.730;2023-03-13T11:29:54;1.77;;;0.70;;
16735;SDS011;17990;49.548;9.730;2023-03-13T11:32:30;2.60;;;0.90;;
16735;SDS011;17990;49.548;9.730;2023-03-13T11:35:05;2.23;;;0.97;;
16735;SDS011;17990;49.548;9.730;2023-03-13T11:37:36;4.60;;;0.90;;
16735;SDS011;17990;49.548;9.730;2023-03-13T11:40:08;5.63;;;1.20;;
16735;SDS011;17990;49.548;9.730;2023-03-13T11:42:47;1.73;;;0.90;;
16735;SDS011;17990;49.548;9.730;2023-03-13T11:45:36;3.07;;;1.03;;
16735;SDS011;17990;49.548;9.730;2023-03-13T11:48:13;2.30;;;0.80;;
16735;SDS011;17990;49.548;9.730;2023-03-13T11:51:02;9.07;;;1.43;;
16735;SDS011;17990;49.548;9.730;2023-03-13T11:53:40;1.80;;;0.87;;
16735;SDS011;17990;49.548;9.730;2023-03-13T11:56:16;3.83;;;1.10;;
16735;SDS011;17990;49.548;9.730;2023-03-13T11:59:06;2.30;;;0.80;;
16735;SDS011;17990;49.548;9.730;2023-03-13T12:01:56;4.27;;;1.10;;
16735;SDS011;17990;49.548;9.730;2023-03-13T12:04:27;1.97;;;0.80;;
16735;SDS011;17990;49.548;9.730;2023-03-13T12:06:59;4.07;;;1.10;;
16735;SDS011;17990;49.548;9.730;2023-03-13T12:09:30;3.93;;;1.00;;
16735;SDS011;17990;49.548;9.730;2023-03-13T12:12:00;1.77;;;0.90;;
16735;SDS011;17990;49.548;9.730;2023-03-13T12:14:30;2.47;;;0.90;;
16735;SDS011;17990;49.548;9.730;2023-03-13T12:17:00;2.87;;;1.00;;
16735;SDS011;17990;49.548;9.730;2023-03-13T12:19:29;6.40;;;1.30;;
16735;SDS011;17990;49.548;9.730;2023-03-13T12:22:02;1.63;;;0.90;;
16735;SDS011;17990;49.548;9.730;2023-03-13T12:24:37;2.93;;;1.10;;
16735;SDS011;17990;49.548;9.730;2023-03-13T12:27:09;2.65;;;1.05;;
16735;SDS011;17990;49.548;9.730;2023-03-13T12:29:40;4.05;;;1.00;;
16735;SDS011;17990;49.548;9.730;2023-03-13T12:32:12;1.90;;;1.02;;
16735;SDS011;17990;49.548;9.730;2023-03-13T12:34:45;2.90;;;1.67;;
16735;SDS011;17990;49.548;9.730;2023-03-13T12:37:20;2.15;;;1.00;;
16735;SDS011;17990;49.548;9.730;2023-03-13T12:39:52;2.67;;;0.80;;
16735;SDS011;17990;49.548;9.730;2023-03-13T12:42:27;1.67;;;0.90;;
16735;SDS011;17990;49.548;9.730;2023-03-13T12:45:09;1.95;;;0.80;;
16735;SDS011;17990;49.548;9.730;2023-03-13T12:47:49;4.10;;;0.85;;
16735;SDS011;17990;49.548;9.730;2023-03-13T12:50:33;3.25;;;1.02;;
16735;SDS011;17990;49.548;9.730;2023-03-13T12:53:21;1.75;;;0.90;;
16735;SDS011;17990;49.548;9.730;2023-03-13T12:56:07;2.95;;;0.88;;
16735;SDS011;17990;49.548;9.730;2023-03-13T12:58:50;1.13;;;0.60;;
16735;SDS011;17990;49.548;9.730;2023-03-13T13:01:24;3.85;;;0.88;;
16735;SDS011;17990;49.548;9.730;2023-03-13T13:03:55;2.85;;;0.90;;
16735;SDS011;17990;49.548;9.730;2023-03-13T13:06:48;4.18;;;1.20;;
16735;SDS011;17990;49.548;9.730;2023-03-13T13:09:21;1.90;;;0.80;;
16735;SDS011;17990;49.548;9.730;2023-03-13T13:11:49;1.30;;;1.00;;
16735;SDS011;17990;49.548;9.730;2023-03-13T13:17:48;1.98;;;0.93;;
16735;SDS011;17990;49.548;9.730;2023-03-13T13:20:33;5.07;;;0.70;;
16735;SDS011;17990;49.548;9.730;2023-03-13T13:23:20;5.47;;;0.90;;
16735;SDS011;17990;49.548;9.730;2023-03-13T13:25:51;1.67;;;0.75;;
16735;SDS011;17990;49.548;9.730;2023-03-13T13:31:01;1.05;;;0.60;;
16735;SDS011;17990;49.548;9.730;2023-03-13T13:34:07;4.45;;;1.00;;
16735;SDS011;17990;49.548;9.730;2023-03-13T13:37:26;2.58;;;1.13;;
16735;SDS011;17990;49.548;9.730;2023-03-13T13:40:08;2.78;;;1.25;;
16735;SDS011;17990;49.548;9.730;2023-03-13T13:42:49;3.92;;;0.90;;
16735;SDS011;17990;49.548;9.730;2023-03-13T13:45:19;1.60;;;1.23;;
16735;SDS011;17990;49.548;9.730;2023-03-13T13:47:50;1.10;;;0.80;;
16735;SDS011;17990;49.548;9.730;2023-03-13T13:50:38;2.10;;;0.93;;
16735;SDS011;17990;49.548;9.730;2023-03-13T13:53:22;2.80;;;0.70;;
16735;SDS011;17990;49.548;9.730;2023-03-13T13:55:54;1.38;;;0.80;;
16735;SDS011;17990;49.548;9.730;2023-03-13T13:58:24;1.05;;;0.60;;
16735;SDS011;17990;49.548;9.730;2023-03-13T14:00:54;4.07;;;1.20;;
16735;SDS011;17990;49.548;9.730;2023-03-13T14:03:23;0.95;;;0.63;;
16735;SDS011;17990;49.548;9.730;2023-03-13T14:05:53;1.42;;;0.80;;
16735;SDS011;17990;49.548;9.730;2023-03-13T14:08:23;4.78;;;1.10;;
16735;SDS011;17990;49.548;9.730;2023-03-13T14:10:54;2.10;;;0.90;;
16735;SDS011;17990;49.548;9.730;2023-03-13T14:13:34;4.13;;;0.93;;
16735;SDS011;17990;49.548;9.730;2023-03-13T14:16:13;3.40;;;1.00;;
16735;SDS011;17990;49.548;9.730;2023-03-13T14:18:46;1.95;;;1.10;;
16735;SDS011;17990;49.548;9.730;2023-03-13T14:21:14;6.35;;;1.25;;
16735;SDS011;17990;49.548;9.730;2023-03-13T14:23:47;3.92;;;1.30;;
16735;SDS011;17990;49.548;9.730;2023-03-13T14:26:14;2.05;;;0.93;;
16735;SDS011;17990;49.548;9.730;2023-03-13T14:28:45;2.15;;;0.80;;
16735;SDS011;17990;49.548;9.730;2023-03-13T14:31:21;1.42;;;0.70;;
16735;SDS011;17990;49.548;9.730;2023-03-13T14:33:50;2.90;;;0.85;;
16735;SDS011;17990;49.548;9.730;2023-03-13T14:36:17;3.47;;;1.00;;
16735;SDS011;17990;49.548;9.730;2023-03-13T14:38:51;7.25;;;1.02;;
16735;SDS011;17990;49.548;9.730;2023-03-13T14:43:54;3.65;;;0.90;;
16735;SDS011;17990;49.548;9.730;2023-03-13T14:46:30;2.67;;;1.00;;
16735;SDS011;17990;49.548;9.730;2023-03-13T14:49:04;2.17;;;1.08;;
16735;SDS011;17990;49.548;9.730;2023-03-13T14:51:33;5.53;;;1.08;;
16735;SDS011;17990;49.548;9.730;2023-03-13T14:54:04;1.58;;;0.80;;
16735;SDS011;17990;49.548;9.730;2023-03-13T14:56:32;2.63;;;1.13;;
16735;SDS011;17990;49.548;9.730;2023-03-13T14:59:11;1.45;;;0.80;;
16735;SDS011;17990;49.548;9.730;2023-03-13T15:01:42;2.15;;;0.90;;
16735;SDS011;17990;49.548;9.730;2023-03-13T15:04:09;2.00;;;0.93;;
16735;SDS011;17990;49.548;9.730;2023-03-13T15:06:36;2.80;;;1.20;;
16735;SDS011;17990;49.548;9.730;2023-03-13T15:09:14;5.97;;;1.02;;
16735;SDS011;17990;49.548;9.730;2023-03-13T15:11:51;4.90;;;1.15;;
16735;SDS011;17990;49.548;9.730;2023-03-13T15:14:35;1.75;;;0.98;;
16735;SDS011;17990;49.548;9.730;2023-03-13T15:17:08;3.65;;;0.77;;
16735;SDS011;17990;49.548;9.730;2023-03-13T15:19:41;2.72;;;0.80;;
16735;SDS011;17990;49.548;9.730;2023-03-13T15:22:12;4.90;;;0.90;;
16735;SDS011;17990;49.548;9.730;2023-03-13T15:24:41;1.80;;;0.80;;
16735;SDS011;17990;49.548;9.730;2023-03-13T15:27:17;4.45;;;0.90;;